createdAt,value
2023-04-20T00:01:11.832Z,1.80
2023-04-20T00:03:39.789Z,2.00
2023-04-20T00:06:07.993Z,2.08
2023-04-20T00:08:35.843Z,3.00
2023-04-20T00:11:03.720Z,2.10
2023-04-20T00:13:32.803Z,2.70
2023-04-20T00:16:00.568Z,2.10
2023-04-20T00:18:28.284Z,2.10
2023-04-20T00:20:56.004Z,2.90
2023-04-20T00:23:23.688Z,2.30
2023-04-20T00:25:52.219Z,2.20
2023-04-20T00:28:20.000Z,2.35
2023-04-20T00:30:49.114Z,3.00
2023-04-20T00:33:16.888Z,3.22
2023-04-20T00:35:44.591Z,2.40
2023-04-20T00:38:12.341Z,2.03
2023-04-20T00:40:40.100Z,2.15
2023-04-20T00:43:11.573Z,2.60
2023-04-20T00:45:39.504Z,2.00
2023-04-20T00:48:08.753Z,2.40
2023-04-20T00:50:38.660Z,1.88
2023-04-20T00:53:07.825Z,2.15
2023-04-20T00:55:38.603Z,2.55
2023-04-20T00:58:06.545Z,2.22
2023-04-20T01:00:35.037Z,2.28
2023-04-20T01:03:03.116Z,2.03
2023-04-20T01:05:32.312Z,2.03
2023-04-20T01:08:00.043Z,2.10
2023-04-20T01:10:27.849Z,2.20
2023-04-20T01:12:55.522Z,2.35
2023-04-20T01:15:23.256Z,2.10
2023-04-20T01:17:52.373Z,2.08
2023-04-20T01:20:20.449Z,2.13
2023-04-20T01:22:50.940Z,2.25
2023-04-20T01:25:20.182Z,2.30
2023-04-20T01:27:47.923Z,2.03
2023-04-20T01:30:17.235Z,2.00
2023-04-20T01:32:45.443Z,3.10
2023-04-20T01:35:13.205Z,2.53
2023-04-20T01:37:41.835Z,2.40
2023-04-20T01:40:13.394Z,1.77
2023-04-20T01:42:41.348Z,2.10
2023-04-20T01:45:10.122Z,2.25
2023-04-20T01:47:38.148Z,2.20
2023-04-20T01:50:06.514Z,2.10
2023-04-20T01:52:34.192Z,1.88
2023-04-20T01:55:01.933Z,2.10
2023-04-20T01:57:31.052Z,2.38
2023-04-20T01:59:58.792Z,2.53
2023-04-20T02:02:26.648Z,2.15
2023-04-20T02:04:54.505Z,1.90
2023-04-20T02:07:22.210Z,1.98
2023-04-20T02:09:49.894Z,2.17
2023-04-20T02:12:17.608Z,2.20
2023-04-20T02:14:46.685Z,2.20
2023-04-20T02:17:14.976Z,2.22
2023-04-20T02:19:42.816Z,2.35
2023-04-20T02:22:10.553Z,2.17
2023-04-20T02:24:38.212Z,2.50
2023-04-20T02:27:06.327Z,2.42
2023-04-20T02:29:34.039Z,1.95
2023-04-20T02:32:03.114Z,2.05
2023-04-20T02:34:30.850Z,1.90
2023-04-20T02:36:58.600Z,2.08
2023-04-20T02:39:26.413Z,2.55
2023-04-20T02:41:54.117Z,2.30
2023-04-20T02:44:21.789Z,2.63
2023-04-20T02:46:49.541Z,2.28
2023-04-20T02:49:18.956Z,1.83
2023-04-20T02:51:46.895Z,1.85
2023-04-20T02:54:14.709Z,2.17
2023-04-20T02:56:42.441Z,1.80
2023-04-20T02:59:10.341Z,1.92
2023-04-20T03:01:38.111Z,1.90
2023-04-20T03:04:06.641Z,2.13
2023-04-20T03:06:38.708Z,1.90
2023-04-20T03:09:08.924Z,2.22
2023-04-20T03:11:36.714Z,2.33
2023-04-20T03:14:04.418Z,1.90
2023-04-20T03:16:32.227Z,2.03
2023-04-20T03:19:00.003Z,2.30
2023-04-20T03:21:27.696Z,2.10
2023-04-20T03:23:56.725Z,2.22
2023-04-20T03:26:24.440Z,2.35
2023-04-20T03:28:52.431Z,1.90
2023-04-20T03:31:20.240Z,2.47
2023-04-20T03:33:47.999Z,2.10
2023-04-20T03:36:15.707Z,2.25
2023-04-20T03:38:43.396Z,2.40
2023-04-20T03:41:12.493Z,2.58
2023-04-20T03:43:41.331Z,2.78
2023-04-20T03:46:09.101Z,2.17
2023-04-20T03:48:36.884Z,2.58
2023-04-20T03:51:04.773Z,2.85
2023-04-20T03:53:32.480Z,2.35
2023-04-20T03:56:00.758Z,2.90
2023-04-20T03:58:29.881Z,2.42
2023-04-20T04:01:02.377Z,2.40
2023-04-20T04:03:30.346Z,2.95
2023-04-20T04:05:58.393Z,2.60
2023-04-20T04:08:26.737Z,2.50
2023-04-20T04:10:54.458Z,2.75
2023-04-20T04:13:22.200Z,2.53
2023-04-20T04:15:51.256Z,2.40
2023-04-20T04:18:18.924Z,2.50
2023-04-20T04:20:46.594Z,2.35
2023-04-20T04:23:14.336Z,2.80
2023-04-20T04:25:42.280Z,2.22
2023-04-20T04:28:10.065Z,2.28
2023-04-20T04:30:37.863Z,2.35
2023-04-20T04:33:07.706Z,2.50
2023-04-20T04:35:35.486Z,2.42
2023-04-20T04:38:03.262Z,2.78
2023-04-20T04:40:32.759Z,2.30
2023-04-20T04:43:01.005Z,2.50
2023-04-20T04:45:28.713Z,3.22
2023-04-20T04:47:57.207Z,2.33
2023-04-20T04:50:26.367Z,2.03
2023-04-20T04:52:54.128Z,2.47
2023-04-20T04:55:21.801Z,2.58
2023-04-20T04:57:49.515Z,2.60
2023-04-20T05:00:19.412Z,2.30
2023-04-20T05:02:47.307Z,2.20
2023-04-20T05:05:15.594Z,2.60
2023-04-20T05:07:44.743Z,2.70
2023-04-20T05:10:14.138Z,2.90
2023-04-20T05:12:42.861Z,2.83
2023-04-20T05:15:11.345Z,2.53
2023-04-20T05:17:39.086Z,2.75
2023-04-20T05:20:10.493Z,2.28
2023-04-20T05:22:38.363Z,2.40
2023-04-20T05:25:08.832Z,2.80
2023-04-20T05:27:36.768Z,3.20
2023-04-20T05:30:16.984Z,2.50
2023-04-20T05:32:49.971Z,2.63
2023-04-20T05:35:19.208Z,2.85
2023-04-20T05:37:47.695Z,2.58
2023-04-20T05:40:17.259Z,2.60
2023-04-20T05:42:44.971Z,2.90
2023-04-20T05:45:12.978Z,2.88
2023-04-20T05:47:40.800Z,2.50
2023-04-20T05:50:10.287Z,2.75
2023-04-20T05:52:38.144Z,2.40
2023-04-20T05:55:06.625Z,3.25
2023-04-20T05:57:41.810Z,2.65
2023-04-20T06:00:11.689Z,2.55
2023-04-20T06:02:39.803Z,3.30
2023-04-20T06:05:09.419Z,2.92
2023-04-20T06:07:37.507Z,2.85
2023-04-20T06:10:06.654Z,2.80
2023-04-20T06:12:35.953Z,3.13
2023-04-20T06:15:04.790Z,2.65
2023-04-20T06:17:32.534Z,2.45
2023-04-20T06:20:00.262Z,2.33
2023-04-20T06:22:28.046Z,2.65
2023-04-20T06:24:55.829Z,2.75
2023-04-20T06:27:23.531Z,2.25
2023-04-20T06:29:52.597Z,2.75
2023-04-20T06:32:20.372Z,2.78
2023-04-20T06:34:48.292Z,2.90
2023-04-20T06:37:16.132Z,2.63
2023-04-20T06:39:43.849Z,2.78
2023-04-20T06:42:11.598Z,2.60
2023-04-20T06:44:39.303Z,2.60
2023-04-20T06:47:08.454Z,2.80
2023-04-20T06:49:37.548Z,3.10
2023-04-20T06:52:05.519Z,3.17
2023-04-20T06:54:33.535Z,2.67
2023-04-20T06:57:01.361Z,2.70
2023-04-20T06:59:29.070Z,3.92
2023-04-20T07:01:56.785Z,2.50
2023-04-20T07:04:26.179Z,2.92
2023-04-20T07:06:54.491Z,2.83
2023-04-20T07:09:23.076Z,2.75
2023-04-20T07:11:50.820Z,3.22
2023-04-20T07:14:18.525Z,3.08
2023-04-20T07:16:46.300Z,2.85
2023-04-20T07:19:14.039Z,3.55
2023-04-20T07:21:43.122Z,2.72
2023-04-20T07:24:10.830Z,3.05
2023-04-20T07:26:38.591Z,2.47
2023-04-20T07:29:06.434Z,2.33
2023-04-20T07:31:35.422Z,3.17
2023-04-20T07:34:03.457Z,2.75
2023-04-20T07:36:31.208Z,2.80
2023-04-20T07:39:00.307Z,2.88
2023-04-20T07:41:28.143Z,2.85
2023-04-20T07:43:55.878Z,3.00
2023-04-20T07:46:24.011Z,2.67
2023-04-20T07:48:51.757Z,3.00
2023-04-20T07:51:19.473Z,2.83
2023-04-20T07:53:48.073Z,2.78
2023-04-20T07:56:17.151Z,2.60
2023-04-20T07:58:44.859Z,2.70
2023-04-20T08:01:12.581Z,2.33
2023-04-20T08:03:41.769Z,2.58
2023-04-20T08:06:10.980Z,2.75
2023-04-20T08:08:38.681Z,2.65
2023-04-20T08:11:08.105Z,2.40
2023-04-20T08:13:37.732Z,2.65
2023-04-20T08:16:06.021Z,2.42
2023-04-20T08:18:33.852Z,2.47
2023-04-20T08:21:01.594Z,2.22
2023-04-20T08:23:29.339Z,2.13
2023-04-20T08:25:57.153Z,2.22
2023-04-20T08:30:58.784Z,2.20
2023-04-20T08:33:26.548Z,2.30
2023-04-20T08:35:54.342Z,2.00
2023-04-20T08:38:32.822Z,2.13
2023-04-20T08:41:01.823Z,2.15
2023-04-20T08:43:29.539Z,2.20
2023-04-20T08:46:01.737Z,2.10
2023-04-20T08:48:35.056Z,2.63
2023-04-20T08:51:03.022Z,2.55
2023-04-20T08:53:30.868Z,2.53
2023-04-20T08:55:58.756Z,2.80
2023-04-20T08:58:29.543Z,2.30
2023-04-20T09:00:57.251Z,2.40
2023-04-20T09:03:34.568Z,2.17
2023-04-20T09:06:02.534Z,1.98
2023-04-20T09:08:36.448Z,2.20
2023-04-20T09:11:04.179Z,2.38
2023-04-20T09:13:31.937Z,1.95
2023-04-20T09:16:10.422Z,2.20
2023-04-20T09:18:39.557Z,2.22
2023-04-20T09:21:10.791Z,2.85
2023-04-20T09:23:38.658Z,2.33
2023-04-20T09:26:06.722Z,2.75
2023-04-20T09:28:39.673Z,2.38
2023-04-20T09:31:07.461Z,2.42
2023-04-20T09:33:36.743Z,2.15
2023-04-20T09:36:06.943Z,1.90
2023-04-20T09:38:34.692Z,2.00
2023-04-20T09:41:02.905Z,1.85
2023-04-20T09:43:31.504Z,2.30
2023-04-20T09:46:00.302Z,2.00
2023-04-20T09:48:29.153Z,2.15
2023-04-20T09:50:58.974Z,2.42
2023-04-20T09:53:28.099Z,1.88
2023-04-20T09:55:56.157Z,2.22
2023-04-20T09:58:23.927Z,2.17
2023-04-20T10:00:51.930Z,1.90
2023-04-20T10:03:21.723Z,1.90
2023-04-20T10:05:51.652Z,2.33
2023-04-20T10:08:21.243Z,2.10
2023-04-20T10:10:52.295Z,1.88
2023-04-20T10:13:21.927Z,2.25
2023-04-20T10:15:49.868Z,2.00
2023-04-20T10:18:19.787Z,2.17
2023-04-20T10:20:48.075Z,1.90
2023-04-20T10:23:18.494Z,1.83
2023-04-20T10:25:58.341Z,1.88
2023-04-20T10:28:26.267Z,2.13
2023-04-20T10:30:54.806Z,2.50
2023-04-20T10:33:22.919Z,2.05
2023-04-20T10:35:54.536Z,2.13
2023-04-20T10:38:32.237Z,2.05
2023-04-20T10:41:08.303Z,1.90
2023-04-20T10:43:38.960Z,2.92
2023-04-20T10:46:14.902Z,2.53
2023-04-20T10:48:51.202Z,2.15
2023-04-20T10:51:19.054Z,1.90
2023-04-20T10:53:46.781Z,2.20
2023-04-20T10:56:15.936Z,2.13
2023-04-20T10:58:43.763Z,2.45
2023-04-20T11:01:11.505Z,2.72
2023-04-20T11:03:39.300Z,2.40
2023-04-20T11:06:07.612Z,1.90
2023-04-20T11:08:39.823Z,1.95
2023-04-20T11:11:18.247Z,2.40
2023-04-20T11:13:47.484Z,2.30
2023-04-20T11:16:16.891Z,2.00
2023-04-20T11:18:51.424Z,2.33
2023-04-20T11:21:19.418Z,2.00
2023-04-20T11:23:47.631Z,2.67
2023-04-20T11:26:15.905Z,2.90
2023-04-20T11:28:56.443Z,2.60
2023-04-20T11:31:25.546Z,3.13
2023-04-20T11:33:53.451Z,2.85
2023-04-20T11:36:22.110Z,2.33
2023-04-20T11:38:50.104Z,2.60
2023-04-20T11:41:18.403Z,3.17
2023-04-20T11:43:46.283Z,2.03
2023-04-20T11:46:17.106Z,2.72
2023-04-20T11:48:45.535Z,2.55
2023-04-20T11:51:13.332Z,3.22
2023-04-20T11:53:41.395Z,4.25
2023-04-20T11:56:09.750Z,2.70
2023-04-20T11:58:38.329Z,3.40
2023-04-20T12:01:06.798Z,2.97
2023-04-20T12:03:37.066Z,2.45
2023-04-20T12:06:05.552Z,2.42
2023-04-20T12:08:33.276Z,2.97
2023-04-20T12:11:01.003Z,2.65
2023-04-20T12:13:28.720Z,2.60
2023-04-20T12:15:56.506Z,2.70
2023-04-20T12:18:26.788Z,2.65
2023-04-20T12:20:55.882Z,2.65
2023-04-20T12:23:23.616Z,2.35
2023-04-20T12:25:51.366Z,3.17
2023-04-20T12:28:19.246Z,2.80
2023-04-20T12:30:47.040Z,2.20
2023-04-20T12:33:14.800Z,2.80
2023-04-20T12:35:42.665Z,2.65
2023-04-20T12:38:13.977Z,2.10
2023-04-20T12:40:42.308Z,2.70
2023-04-20T12:43:10.064Z,3.00
2023-04-20T12:45:37.790Z,2.60
2023-04-20T12:48:06.350Z,3.30
2023-04-20T12:50:34.220Z,2.63
2023-04-20T12:53:02.378Z,2.58
2023-04-20T12:55:31.766Z,3.20
2023-04-20T12:57:59.531Z,2.67
2023-04-20T13:00:27.413Z,3.40
2023-04-20T13:02:55.286Z,3.63
2023-04-20T13:05:23.159Z,3.17
2023-04-20T13:07:51.487Z,3.58
2023-04-20T13:10:19.209Z,3.17
2023-04-20T13:12:48.267Z,2.55
2023-04-20T13:15:28.304Z,2.92
2023-04-20T13:17:59.952Z,2.83
2023-04-20T13:20:29.305Z,3.33
2023-04-20T13:22:58.510Z,2.80
2023-04-20T13:25:26.664Z,3.20
2023-04-20T13:27:56.309Z,2.72
2023-04-20T13:30:25.073Z,3.17
2023-04-20T13:32:52.958Z,3.10
2023-04-20T13:35:21.106Z,3.30
2023-04-20T13:37:48.948Z,3.25
2023-04-20T13:40:16.739Z,3.58
2023-04-20T13:42:44.477Z,3.67
2023-04-20T13:45:13.865Z,3.53
2023-04-20T13:47:41.879Z,4.05
2023-04-20T13:50:10.550Z,4.65
2023-04-20T13:52:38.441Z,4.85
2023-04-20T13:55:06.663Z,4.68
2023-04-20T13:57:44.303Z,5.13
2023-04-20T14:00:12.823Z,4.57
2023-04-20T14:02:40.715Z,6.10
2023-04-20T14:05:10.280Z,5.55
2023-04-20T14:07:38.131Z,4.75
2023-04-20T14:10:07.141Z,5.38
2023-04-20T14:12:34.994Z,5.10
2023-04-20T14:15:04.460Z,5.13
2023-04-20T14:17:32.269Z,5.60
2023-04-20T14:20:00.602Z,4.88
2023-04-20T14:22:34.142Z,5.43
2023-04-20T14:25:01.869Z,4.78
2023-04-20T14:27:29.613Z,5.47
2023-04-20T14:29:57.323Z,4.63
2023-04-20T14:32:26.462Z,4.93
2023-04-20T14:34:54.276Z,4.05
2023-04-20T14:37:23.190Z,4.90
2023-04-20T14:39:50.905Z,4.50
2023-04-20T14:42:18.662Z,4.30
2023-04-20T14:44:47.829Z,4.60
2023-04-20T14:47:15.531Z,4.85
2023-04-20T14:49:45.099Z,4.45
2023-04-20T14:52:12.828Z,4.15
2023-04-20T14:54:40.615Z,4.03
2023-04-20T14:57:08.350Z,3.70
2023-04-20T14:59:37.165Z,3.85
2023-04-20T15:02:05.822Z,4.55
2023-04-20T15:04:33.867Z,3.53
2023-04-20T15:07:04.063Z,3.90
2023-04-20T15:09:32.734Z,4.28
2023-04-20T15:12:01.862Z,4.10
2023-04-20T15:14:29.607Z,4.18
2023-04-20T15:16:57.426Z,3.80
2023-04-20T15:19:25.259Z,3.78
2023-04-20T15:21:52.970Z,4.60
2023-04-20T15:24:22.057Z,3.67
2023-04-20T15:26:49.783Z,3.08
2023-04-20T15:29:17.574Z,3.60
2023-04-20T15:31:46.814Z,3.55
2023-04-20T15:34:17.293Z,3.53
2023-04-20T15:36:45.833Z,3.33
2023-04-20T15:39:13.605Z,3.20
2023-04-20T15:41:42.680Z,3.13
2023-04-20T15:44:10.443Z,3.17
2023-04-20T15:46:39.221Z,3.17
2023-04-20T15:49:07.203Z,3.63
2023-04-20T15:51:34.969Z,3.75
2023-04-20T15:54:02.711Z,2.83
2023-04-20T15:56:30.459Z,3.45
2023-04-20T15:58:59.571Z,4.25
2023-04-20T16:01:27.398Z,3.50
2023-04-20T16:03:55.338Z,3.53
2023-04-20T16:06:24.178Z,4.00
2023-04-20T16:08:54.019Z,4.10
2023-04-20T16:11:22.229Z,5.03
2023-04-20T16:13:50.091Z,4.00
2023-04-20T16:16:19.231Z,3.75
2023-04-20T16:18:47.058Z,3.90
2023-04-20T16:21:15.423Z,4.50
2023-04-20T16:23:43.153Z,3.78
2023-04-20T16:26:10.969Z,4.80
2023-04-20T16:28:38.847Z,4.47
2023-04-20T16:31:06.758Z,5.30
2023-04-20T16:33:37.965Z,5.65
2023-04-20T16:36:06.247Z,4.70
2023-04-20T16:38:33.982Z,4.15
2023-04-20T16:41:01.738Z,4.93
2023-04-20T16:43:29.487Z,4.82
2023-04-20T16:45:57.207Z,4.60
2023-04-20T16:48:24.954Z,4.63
2023-04-20T16:50:54.180Z,5.00
2023-04-20T16:53:21.881Z,5.20
2023-04-20T16:55:49.620Z,4.75
2023-04-20T16:58:17.409Z,4.32
2023-04-20T17:00:45.183Z,5.20
2023-04-20T17:03:13.876Z,5.47
2023-04-20T17:05:42.315Z,5.30
2023-04-20T17:08:11.451Z,5.10
2023-04-20T17:10:39.477Z,5.72
2023-04-20T17:13:07.278Z,5.35
2023-04-20T17:15:35.121Z,4.60
2023-04-20T17:18:03.569Z,4.82
2023-04-20T17:20:31.357Z,4.65
2023-04-20T17:22:59.076Z,4.28
2023-04-20T17:25:28.256Z,4.28
2023-04-20T17:27:56.016Z,4.82
2023-04-20T17:30:23.824Z,4.18
2023-04-20T17:32:51.628Z,4.72
2023-04-20T17:35:19.358Z,4.90
2023-04-20T17:37:47.208Z,4.10
2023-04-20T17:40:14.981Z,4.72
2023-04-20T17:42:44.428Z,5.13
2023-04-20T17:45:12.732Z,4.60
2023-04-20T17:47:40.522Z,4.90
2023-04-20T17:50:09.665Z,5.03
2023-04-20T17:52:37.362Z,4.93
2023-04-20T17:55:05.670Z,4.47
2023-04-20T17:57:33.446Z,4.43
2023-04-20T18:00:03.935Z,4.65
2023-04-20T18:02:31.856Z,4.28
2023-04-20T18:05:00.910Z,3.90
2023-04-20T18:07:29.301Z,4.30
2023-04-20T18:09:57.001Z,4.47
2023-04-20T18:12:24.744Z,4.22
2023-04-20T18:14:52.447Z,4.07
2023-04-20T18:17:21.654Z,3.92
2023-04-20T18:19:49.379Z,4.32
2023-04-20T18:22:17.171Z,4.05
2023-04-20T18:24:44.974Z,4.25
2023-04-20T18:27:13.327Z,4.03
2023-04-20T18:29:41.163Z,4.00
2023-04-20T18:32:09.113Z,3.95
2023-04-20T18:34:38.202Z,3.83
2023-04-20T18:37:05.952Z,3.75
2023-04-20T18:39:33.876Z,4.22
2023-04-20T18:42:02.277Z,3.78
2023-04-20T18:44:30.311Z,3.80
2023-04-20T18:46:58.377Z,3.55
2023-04-20T18:49:26.224Z,3.58
2023-04-20T18:51:55.369Z,3.60
2023-04-20T18:54:23.106Z,3.88
2023-04-20T18:56:50.935Z,3.05
2023-04-20T18:59:18.627Z,3.47
2023-04-20T19:01:47.554Z,3.60
2023-04-20T19:04:15.325Z,3.20
2023-04-20T19:06:43.157Z,3.53
2023-04-20T19:09:12.221Z,3.35
2023-04-20T19:11:40.052Z,3.40
2023-04-20T19:14:07.893Z,3.00
2023-04-20T19:16:35.918Z,3.33
2023-04-20T19:19:04.083Z,3.35
2023-04-20T19:21:32.690Z,2.85
2023-04-20T19:24:00.567Z,3.53
2023-04-20T19:26:29.640Z,3.63
2023-04-20T19:28:58.269Z,3.55
2023-04-20T19:31:26.450Z,3.60
2023-04-20T19:33:56.546Z,3.50
2023-04-20T19:36:24.895Z,3.63
2023-04-20T19:38:52.628Z,3.60
2023-04-20T19:41:20.408Z,3.90
2023-04-20T19:43:49.508Z,3.33
2023-04-20T19:46:17.318Z,3.38
2023-04-20T19:48:45.268Z,3.40
2023-04-20T19:51:12.980Z,3.42
2023-04-20T19:53:41.013Z,3.30
2023-04-20T19:56:08.812Z,3.72
2023-04-20T19:58:36.582Z,3.53
2023-04-20T20:01:06.138Z,3.90
2023-04-20T20:03:34.079Z,3.90
2023-04-20T20:06:01.968Z,3.78
2023-04-20T20:08:29.963Z,3.33
2023-04-20T20:10:57.820Z,3.80
2023-04-20T20:13:26.234Z,3.58
2023-04-20T20:15:54.310Z,4.18
2023-04-20T20:18:23.468Z,3.88
2023-04-20T20:20:51.513Z,3.53
2023-04-20T20:23:19.268Z,3.38
2023-04-20T20:25:47.051Z,3.42
2023-04-20T20:28:15.282Z,3.92
2023-04-20T20:30:45.194Z,3.40
2023-04-20T20:33:13.078Z,3.38
2023-04-20T20:35:42.584Z,3.35
2023-04-20T20:38:11.049Z,3.33
2023-04-20T20:40:39.946Z,3.35
2023-04-20T20:43:08.537Z,3.60
2023-04-20T20:45:37.226Z,3.50
2023-04-20T20:48:05.629Z,3.08
2023-04-20T20:50:33.464Z,3.30
2023-04-20T20:53:02.537Z,3.60
2023-04-20T20:55:30.422Z,3.15
2023-04-20T20:57:58.200Z,3.35
2023-04-20T21:00:25.923Z,3.10
2023-04-20T21:02:53.810Z,2.75
2023-04-20T21:05:22.833Z,2.80
2023-04-20T21:07:50.821Z,3.65
2023-04-20T21:10:19.916Z,2.92
2023-04-20T21:12:47.647Z,2.83
2023-04-20T21:15:15.427Z,2.95
2023-04-20T21:17:43.470Z,2.70
2023-04-20T21:20:12.307Z,3.42
2023-04-20T21:22:40.156Z,2.88
2023-04-20T21:25:08.719Z,3.33
2023-04-20T21:27:37.820Z,2.50
2023-04-20T21:30:06.240Z,3.30
2023-04-20T21:32:33.922Z,3.55
2023-04-20T21:35:01.658Z,2.95
2023-04-20T21:37:29.347Z,2.97
2023-04-20T21:39:57.054Z,2.75
2023-04-20T21:42:24.725Z,3.25
2023-04-20T21:44:53.823Z,2.95
2023-04-20T21:47:21.881Z,3.17
2023-04-20T21:49:49.623Z,3.13
2023-04-20T21:52:17.294Z,4.45
2023-04-20T21:54:44.995Z,2.90
2023-04-20T21:57:12.746Z,3.63
2023-04-20T21:59:40.447Z,3.75
2023-04-20T22:02:09.600Z,3.38
2023-04-20T22:04:37.436Z,3.80
2023-04-20T22:07:05.306Z,3.88
2023-04-20T22:09:33.139Z,3.78
2023-04-20T22:12:02.039Z,4.20
2023-04-20T22:14:30.234Z,3.63
2023-04-20T22:16:57.964Z,4.55
2023-04-20T22:19:27.031Z,4.25
2023-04-20T22:21:54.832Z,4.15
2023-04-20T22:24:22.551Z,4.18
2023-04-20T22:26:50.257Z,4.63
2023-04-20T22:29:18.082Z,4.35
2023-04-20T22:31:46.043Z,4.20
2023-04-20T22:34:13.814Z,4.30
2023-04-20T22:36:42.916Z,4.68
2023-04-20T22:39:10.767Z,4.25
2023-04-20T22:41:38.554Z,4.97
2023-04-20T22:44:06.284Z,4.38
2023-04-20T22:46:34.005Z,4.35
2023-04-20T22:49:01.801Z,4.28
2023-04-20T22:51:29.860Z,5.07
2023-04-20T22:54:00.918Z,4.68
2023-04-20T22:56:29.402Z,5.10
2023-04-20T22:58:57.214Z,4.95
2023-04-20T23:01:25.217Z,5.07
2023-04-20T23:03:53.174Z,5.05
2023-04-20T23:06:21.990Z,5.80
2023-04-20T23:08:49.790Z,5.38
2023-04-20T23:11:18.881Z,5.57
2023-04-20T23:13:47.752Z,6.05
2023-04-20T23:16:15.554Z,5.35
2023-04-20T23:18:43.311Z,7.25
2023-04-20T23:21:11.049Z,5.85
2023-04-20T23:23:38.750Z,6.75
2023-04-20T23:26:06.431Z,6.28
2023-04-20T23:28:35.689Z,6.47
2023-04-20T23:31:03.415Z,6.07
2023-04-20T23:33:31.152Z,6.18
2023-04-20T23:35:59.485Z,6.57
2023-04-20T23:38:27.232Z,6.20
2023-04-20T23:40:55.043Z,6.47
2023-04-20T23:43:22.750Z,7.13
2023-04-20T23:45:51.872Z,6.47
2023-04-20T23:48:19.577Z,6.53
2023-04-20T23:50:49.851Z,7.32
2023-04-20T23:53:17.658Z,7.45
2023-04-20T23:55:51.702Z,6.80
2023-04-20T23:58:19.492Z,7.75
